sensor_id;sensor_type;location;lat;lon;timestamp;P1;durP1;ratioP1;P2;durP2;ratioP2
261;SDS011;114;48.260;10.988;2023-05-14T00:02:15;14.00;;;12.20;;
261;SDS011;114;48.260;10.988;2023-05-14T00:04:41;14.57;;;13.07;;
261;SDS011;114;48.260;10.988;2023-05-14T00:07:07;14.53;;;12.03;;
261;SDS011;114;48.260;10.988;2023-05-14T00:09:32;16.40;;;13.30;;
261;SDS011;114;48.260;10.988;2023-05-14T00:11:59;14.90;;;13.00;;
261;SDS011;114;48.260;10.988;2023-05-14T00:14:25;15.50;;;13.13;;
261;SDS011;114;48.260;10.988;2023-05-14T00:16:51;13.63;;;12.00;;
261;SDS011;114;48.260;10.988;2023-05-14T00:19:16;14.77;;;13.17;;
261;SDS011;114;48.260;10.988;2023-05-14T00:21:42;15.87;;;14.27;;
261;SDS011;114;48.260;10.988;2023-05-14T00:24:08;25.30;;;13.10;;
261;SDS011;114;48.260;10.988;2023-05-14T00:26:33;17.07;;;13.27;;
261;SDS011;114;48.260;10.988;2023-05-14T00:28:59;13.87;;;12.43;;
261;SDS011;114;48.260;10.988;2023-05-14T00:31:25;16.63;;;13.43;;
261;SDS011;114;48.260;10.988;2023-05-14T00:33:51;14.13;;;12.53;;
261;SDS011;114;48.260;10.988;2023-05-14T00:36:16;14.67;;;13.17;;
261;SDS011;114;48.260;10.988;2023-05-14T00:38:42;14.77;;;12.60;;
261;SDS011;114;48.260;10.988;2023-05-14T00:41:08;15.23;;;13.33;;
261;SDS011;114;48.260;10.988;2023-05-14T00:43:33;14.47;;;12.83;;
261;SDS011;114;48.260;10.988;2023-05-14T00:45:59;14.67;;;13.27;;
261;SDS011;114;48.260;10.988;2023-05-14T00:48:25;18.90;;;14.70;;
261;SDS011;114;48.260;10.988;2023-05-14T00:50:51;17.57;;;13.47;;
261;SDS011;114;48.260;10.988;2023-05-14T00:53:17;16.90;;;15.20;;
261;SDS011;114;48.260;10.988;2023-05-14T00:55:44;14.67;;;13.17;;
261;SDS011;114;48.260;10.988;2023-05-14T00:58:12;15.93;;;14.03;;
261;SDS011;114;48.260;10.988;2023-05-14T01:00:39;20.87;;;12.87;;
261;SDS011;114;48.260;10.988;2023-05-14T01:03:06;14.30;;;12.80;;
261;SDS011;114;48.260;10.988;2023-05-14T01:05:46;15.30;;;13.67;;
261;SDS011;114;48.260;10.988;2023-05-14T01:12:06;16.63;;;14.93;;
261;SDS011;114;48.260;10.988;2023-05-14T01:17:01;17.97;;;14.67;;
261;SDS011;114;48.260;10.988;2023-05-14T01:21:57;19.50;;;13.33;;
261;SDS011;114;48.260;10.988;2023-05-14T01:24:22;16.10;;;13.87;;
261;SDS011;114;48.260;10.988;2023-05-14T01:26:48;20.53;;;14.70;;
261;SDS011;114;48.260;10.988;2023-05-14T01:29:21;16.93;;;14.07;;
261;SDS011;114;48.260;10.988;2023-05-14T01:31:48;17.63;;;15.70;;
261;SDS011;114;48.260;10.988;2023-05-14T01:34:15;18.37;;;15.27;;
261;SDS011;114;48.260;10.988;2023-05-14T01:36:44;21.67;;;14.80;;
261;SDS011;114;48.260;10.988;2023-05-14T01:39:11;17.30;;;15.37;;
261;SDS011;114;48.260;10.988;2023-05-14T01:41:39;17.60;;;13.93;;
261;SDS011;114;48.260;10.988;2023-05-14T01:44:09;17.40;;;15.60;;
261;SDS011;114;48.260;10.988;2023-05-14T01:46:35;16.53;;;13.90;;
261;SDS011;114;48.260;10.988;2023-05-14T01:49:01;16.07;;;14.37;;
261;SDS011;114;48.260;10.988;2023-05-14T01:51:27;18.30;;;14.73;;
261;SDS011;114;48.260;10.988;2023-05-14T01:53:53;16.73;;;14.37;;
261;SDS011;114;48.260;10.988;2023-05-14T01:56:19;18.77;;;14.90;;
261;SDS011;114;48.260;10.988;2023-05-14T01:58:47;15.70;;;14.10;;
261;SDS011;114;48.260;10.988;2023-05-14T02:01:13;15.83;;;13.33;;
261;SDS011;114;48.260;10.988;2023-05-14T02:03:39;17.30;;;14.43;;
261;SDS011;114;48.260;10.988;2023-05-14T02:06:04;20.23;;;15.47;;
261;SDS011;114;48.260;10.988;2023-05-14T02:08:30;15.30;;;13.70;;
261;SDS011;114;48.260;10.988;2023-05-14T02:10:56;17.50;;;14.97;;
261;SDS011;114;48.260;10.988;2023-05-14T02:13:22;15.77;;;13.80;;
261;SDS011;114;48.260;10.988;2023-05-14T02:15:48;18.50;;;15.10;;
261;SDS011;114;48.260;10.988;2023-05-14T02:18:14;16.20;;;14.50;;
261;SDS011;114;48.260;10.988;2023-05-14T02:20:40;25.43;;;15.50;;
261;SDS011;114;48.260;10.988;2023-05-14T02:23:06;18.43;;;14.80;;
261;SDS011;114;48.260;10.988;2023-05-14T02:25:31;15.90;;;14.20;;
261;SDS011;114;48.260;10.988;2023-05-14T02:27:57;22.17;;;15.43;;
261;SDS011;114;48.260;10.988;2023-05-14T02:30:23;16.20;;;13.43;;
261;SDS011;114;48.260;10.988;2023-05-14T02:32:49;18.57;;;15.47;;
261;SDS011;114;48.260;10.988;2023-05-14T02:35:14;19.93;;;15.00;;
261;SDS011;114;48.260;10.988;2023-05-14T02:37:40;17.13;;;14.87;;
261;SDS011;114;48.260;10.988;2023-05-14T02:40:06;16.00;;;14.30;;
261;SDS011;114;48.260;10.988;2023-05-14T02:42:33;16.37;;;14.47;;
261;SDS011;114;48.260;10.988;2023-05-14T02:44:59;20.43;;;16.03;;
261;SDS011;114;48.260;10.988;2023-05-14T02:47:25;25.10;;;15.00;;
261;SDS011;114;48.260;10.988;2023-05-14T02:49:50;18.37;;;14.80;;
261;SDS011;114;48.260;10.988;2023-05-14T02:52:16;18.03;;;15.37;;
261;SDS011;114;48.260;10.988;2023-05-14T02:54:42;17.50;;;14.13;;
261;SDS011;114;48.260;10.988;2023-05-14T02:57:07;18.77;;;15.33;;
261;SDS011;114;48.260;10.988;2023-05-14T02:59:33;21.97;;;15.90;;
261;SDS011;114;48.260;10.988;2023-05-14T03:02:00;19.00;;;16.03;;
261;SDS011;114;48.260;10.988;2023-05-14T03:04:25;20.93;;;16.03;;
261;SDS011;114;48.260;10.988;2023-05-14T03:06:51;17.70;;;15.33;;
261;SDS011;114;48.260;10.988;2023-05-14T03:09:17;18.43;;;15.90;;
261;SDS011;114;48.260;10.988;2023-05-14T03:11:42;21.03;;;14.40;;
261;SDS011;114;48.260;10.988;2023-05-14T03:14:08;21.20;;;16.03;;
261;SDS011;114;48.260;10.988;2023-05-14T03:16:33;18.07;;;15.50;;
261;SDS011;114;48.260;10.988;2023-05-14T03:18:59;20.27;;;17.03;;
261;SDS011;114;48.260;10.988;2023-05-14T03:21:25;19.80;;;16.13;;
261;SDS011;114;48.260;10.988;2023-05-14T03:23:51;25.80;;;17.50;;
261;SDS011;114;48.260;10.988;2023-05-14T03:26:17;19.60;;;16.40;;
261;SDS011;114;48.260;10.988;2023-05-14T03:28:43;21.63;;;17.00;;
261;SDS011;114;48.260;10.988;2023-05-14T03:31:09;21.00;;;15.47;;
261;SDS011;114;48.260;10.988;2023-05-14T03:33:34;20.50;;;15.77;;
261;SDS011;114;48.260;10.988;2023-05-14T03:36:00;21.40;;;16.50;;
261;SDS011;114;48.260;10.988;2023-05-14T03:38:26;18.93;;;15.93;;
261;SDS011;114;48.260;10.988;2023-05-14T03:40:51;23.47;;;15.87;;
261;SDS011;114;48.260;10.988;2023-05-14T03:43:17;21.13;;;16.57;;
261;SDS011;114;48.260;10.988;2023-05-14T03:45:43;19.27;;;16.07;;
261;SDS011;114;48.260;10.988;2023-05-14T03:48:09;20.57;;;15.73;;
261;SDS011;114;48.260;10.988;2023-05-14T03:50:34;20.10;;;16.23;;
261;SDS011;114;48.260;10.988;2023-05-14T03:53:00;15.83;;;14.23;;
261;SDS011;114;48.260;10.988;2023-05-14T03:55:26;20.07;;;14.90;;
261;SDS011;114;48.260;10.988;2023-05-14T03:57:51;17.20;;;14.43;;
261;SDS011;114;48.260;10.988;2023-05-14T04:00:17;19.57;;;15.10;;
261;SDS011;114;48.260;10.988;2023-05-14T04:02:43;19.20;;;14.77;;
261;SDS011;114;48.260;10.988;2023-05-14T04:05:09;19.97;;;14.97;;
261;SDS011;114;48.260;10.988;2023-05-14T04:07:34;22.37;;;15.60;;
261;SDS011;114;48.260;10.988;2023-05-14T04:10:01;24.13;;;13.80;;
261;SDS011;114;48.260;10.988;2023-05-14T04:12:27;16.40;;;13.90;;
261;SDS011;114;48.260;10.988;2023-05-14T04:14:53;20.37;;;15.23;;
261;SDS011;114;48.260;10.988;2023-05-14T04:17:19;17.27;;;15.00;;
261;SDS011;114;48.260;10.988;2023-05-14T04:19:44;17.43;;;14.67;;
261;SDS011;114;48.260;10.988;2023-05-14T04:22:10;19.20;;;15.10;;
261;SDS011;114;48.260;10.988;2023-05-14T04:24:35;19.97;;;15.23;;
261;SDS011;114;48.260;10.988;2023-05-14T04:27:01;21.63;;;14.63;;
261;SDS011;114;48.260;10.988;2023-05-14T04:29:27;18.80;;;15.87;;
261;SDS011;114;48.260;10.988;2023-05-14T04:31:53;19.90;;;15.37;;
261;SDS011;114;48.260;10.988;2023-05-14T04:34:19;18.20;;;15.10;;
261;SDS011;114;48.260;10.988;2023-05-14T04:36:44;18.40;;;14.87;;
261;SDS011;114;48.260;10.988;2023-05-14T04:39:10;19.90;;;15.47;;
261;SDS011;114;48.260;10.988;2023-05-14T04:41:36;17.07;;;14.40;;
261;SDS011;114;48.260;10.988;2023-05-14T04:44:02;21.63;;;14.90;;
261;SDS011;114;48.260;10.988;2023-05-14T04:46:28;35.10;;;16.60;;
261;SDS011;114;48.260;10.988;2023-05-14T04:48:54;21.33;;;17.07;;
261;SDS011;114;48.260;10.988;2023-05-14T04:51:20;23.00;;;17.70;;
261;SDS011;114;48.260;10.988;2023-05-14T04:53:46;22.03;;;16.90;;
261;SDS011;114;48.260;10.988;2023-05-14T04:56:12;19.07;;;15.57;;
261;SDS011;114;48.260;10.988;2023-05-14T04:58:38;23.40;;;15.73;;
261;SDS011;114;48.260;10.988;2023-05-14T05:01:03;24.40;;;16.60;;
261;SDS011;114;48.260;10.988;2023-05-14T05:03:30;20.20;;;15.93;;
261;SDS011;114;48.260;10.988;2023-05-14T05:05:55;19.53;;;15.77;;
261;SDS011;114;48.260;10.988;2023-05-14T05:08:21;20.90;;;15.40;;
261;SDS011;114;48.260;10.988;2023-05-14T05:10:47;35.77;;;16.03;;
261;SDS011;114;48.260;10.988;2023-05-14T05:13:12;23.40;;;16.27;;
261;SDS011;114;48.260;10.988;2023-05-14T05:15:39;23.17;;;15.20;;
261;SDS011;114;48.260;10.988;2023-05-14T05:18:05;18.83;;;15.90;;
261;SDS011;114;48.260;10.988;2023-05-14T05:20:30;23.27;;;17.30;;
261;SDS011;114;48.260;10.988;2023-05-14T05:22:56;23.40;;;16.43;;
261;SDS011;114;48.260;10.988;2023-05-14T05:25:22;19.47;;;15.80;;
261;SDS011;114;48.260;10.988;2023-05-14T05:27:47;23.47;;;15.93;;
261;SDS011;114;48.260;10.988;2023-05-14T05:30:13;21.10;;;16.30;;
261;SDS011;114;48.260;10.988;2023-05-14T05:32:39;23.30;;;17.33;;
261;SDS011;114;48.260;10.988;2023-05-14T05:35:05;20.00;;;14.60;;
261;SDS011;114;48.260;10.988;2023-05-14T05:37:31;21.63;;;15.20;;
261;SDS011;114;48.260;10.988;2023-05-14T05:39:57;19.50;;;16.77;;
261;SDS011;114;48.260;10.988;2023-05-14T05:42:22;20.77;;;16.27;;
261;SDS011;114;48.260;10.988;2023-05-14T05:44:48;26.57;;;17.50;;
261;SDS011;114;48.260;10.988;2023-05-14T05:47:14;20.90;;;16.97;;
261;SDS011;114;48.260;10.988;2023-05-14T05:49:41;25.47;;;17.67;;
261;SDS011;114;48.260;10.988;2023-05-14T05:52:06;28.43;;;17.30;;
261;SDS011;114;48.260;10.988;2023-05-14T05:54:32;24.97;;;18.07;;
261;SDS011;114;48.260;10.988;2023-05-14T05:56:58;23.03;;;16.57;;
261;SDS011;114;48.260;10.988;2023-05-14T05:59:24;32.37;;;17.80;;
261;SDS011;114;48.260;10.988;2023-05-14T06:01:50;24.47;;;17.20;;
261;SDS011;114;48.260;10.988;2023-05-14T06:04:16;22.40;;;16.90;;
261;SDS011;114;48.260;10.988;2023-05-14T06:06:41;33.27;;;20.23;;
261;SDS011;114;48.260;10.988;2023-05-14T06:09:07;29.63;;;17.80;;
261;SDS011;114;48.260;10.988;2023-05-14T06:11:33;27.20;;;18.30;;
261;SDS011;114;48.260;10.988;2023-05-14T06:14:00;29.00;;;16.60;;
261;SDS011;114;48.260;10.988;2023-05-14T06:16:25;29.03;;;18.10;;
261;SDS011;114;48.260;10.988;2023-05-14T06:18:51;25.97;;;17.80;;
261;SDS011;114;48.260;10.988;2023-05-14T06:21:18;26.10;;;16.70;;
261;SDS011;114;48.260;10.988;2023-05-14T06:23:44;23.97;;;17.30;;
261;SDS011;114;48.260;10.988;2023-05-14T06:26:09;41.47;;;20.40;;
261;SDS011;114;48.260;10.988;2023-05-14T06:28:35;26.50;;;18.17;;
261;SDS011;114;48.260;10.988;2023-05-14T06:31:01;28.47;;;17.43;;
261;SDS011;114;48.260;10.988;2023-05-14T06:33:26;28.53;;;17.80;;
261;SDS011;114;48.260;10.988;2023-05-14T06:36:02;30.00;;;19.50;;
261;SDS011;114;48.260;10.988;2023-05-14T06:38:29;30.60;;;18.67;;
261;SDS011;114;48.260;10.988;2023-05-14T06:40:55;26.67;;;18.20;;
261;SDS011;114;48.260;10.988;2023-05-14T06:43:21;33.00;;;19.47;;
261;SDS011;114;48.260;10.988;2023-05-14T06:45:47;33.13;;;19.97;;
261;SDS011;114;48.260;10.988;2023-05-14T06:48:13;27.40;;;19.20;;
261;SDS011;114;48.260;10.988;2023-05-14T06:50:39;28.83;;;19.13;;
261;SDS011;114;48.260;10.988;2023-05-14T06:53:05;39.80;;;22.33;;
261;SDS011;114;48.260;10.988;2023-05-14T06:55:31;31.63;;;18.93;;
261;SDS011;114;48.260;10.988;2023-05-14T06:57:56;28.97;;;19.33;;
261;SDS011;114;48.260;10.988;2023-05-14T07:00:22;37.90;;;18.70;;
261;SDS011;114;48.260;10.988;2023-05-14T07:02:48;34.17;;;18.67;;
261;SDS011;114;48.260;10.988;2023-05-14T07:05:13;38.10;;;20.70;;
261;SDS011;114;48.260;10.988;2023-05-14T07:07:39;25.07;;;17.83;;
261;SDS011;114;48.260;10.988;2023-05-14T07:10:05;30.30;;;19.83;;
261;SDS011;114;48.260;10.988;2023-05-14T07:12:32;34.90;;;20.27;;
261;SDS011;114;48.260;10.988;2023-05-14T07:14:57;34.90;;;21.40;;
261;SDS011;114;48.260;10.988;2023-05-14T07:17:23;39.93;;;21.30;;
261;SDS011;114;48.260;10.988;2023-05-14T07:19:49;33.57;;;20.00;;
261;SDS011;114;48.260;10.988;2023-05-14T07:22:15;33.13;;;19.53;;
261;SDS011;114;48.260;10.988;2023-05-14T07:24:41;38.67;;;22.20;;
261;SDS011;114;48.260;10.988;2023-05-14T07:27:06;34.30;;;21.07;;
261;SDS011;114;48.260;10.988;2023-05-14T07:29:33;36.70;;;22.00;;
261;SDS011;114;48.260;10.988;2023-05-14T07:31:59;33.80;;;20.40;;
261;SDS011;114;48.260;10.988;2023-05-14T07:34:25;34.33;;;21.70;;
261;SDS011;114;48.260;10.988;2023-05-14T07:36:51;38.03;;;20.43;;
261;SDS011;114;48.260;10.988;2023-05-14T07:39:17;30.60;;;20.63;;
261;SDS011;114;48.260;10.988;2023-05-14T07:41:42;31.43;;;19.33;;
261;SDS011;114;48.260;10.988;2023-05-14T07:44:08;23.13;;;17.77;;
261;SDS011;114;48.260;10.988;2023-05-14T07:46:34;25.90;;;17.27;;
261;SDS011;114;48.260;10.988;2023-05-14T07:49:00;23.57;;;16.00;;
261;SDS011;114;48.260;10.988;2023-05-14T07:51:26;36.37;;;15.80;;
261;SDS011;114;48.260;10.988;2023-05-14T07:53:52;24.10;;;14.80;;
261;SDS011;114;48.260;10.988;2023-05-14T07:56:19;25.97;;;15.93;;
261;SDS011;114;48.260;10.988;2023-05-14T07:58:46;19.57;;;13.80;;
261;SDS011;114;48.260;10.988;2023-05-14T08:01:12;19.63;;;14.17;;
261;SDS011;114;48.260;10.988;2023-05-14T08:03:37;23.27;;;15.40;;
261;SDS011;114;48.260;10.988;2023-05-14T08:06:03;16.97;;;13.07;;
261;SDS011;114;48.260;10.988;2023-05-14T08:08:29;20.07;;;12.60;;
261;SDS011;114;48.260;10.988;2023-05-14T08:10:55;17.90;;;12.70;;
261;SDS011;114;48.260;10.988;2023-05-14T08:13:21;18.03;;;12.60;;
261;SDS011;114;48.260;10.988;2023-05-14T08:15:46;16.43;;;12.63;;
261;SDS011;114;48.260;10.988;2023-05-14T08:18:12;14.03;;;11.93;;
261;SDS011;114;48.260;10.988;2023-05-14T08:20:38;16.37;;;12.33;;
261;SDS011;114;48.260;10.988;2023-05-14T08:23:03;15.80;;;13.20;;
261;SDS011;114;48.260;10.988;2023-05-14T08:25:31;22.70;;;13.10;;
261;SDS011;114;48.260;10.988;2023-05-14T08:27:57;16.70;;;13.50;;
261;SDS011;114;48.260;10.988;2023-05-14T08:30:23;18.10;;;14.47;;
261;SDS011;114;48.260;10.988;2023-05-14T08:32:49;21.90;;;15.57;;
261;SDS011;114;48.260;10.988;2023-05-14T08:35:18;20.60;;;16.40;;
261;SDS011;114;48.260;10.988;2023-05-14T08:37:44;20.70;;;16.67;;
261;SDS011;114;48.260;10.988;2023-05-14T08:40:10;20.47;;;15.27;;
261;SDS011;114;48.260;10.988;2023-05-14T08:42:37;21.13;;;17.50;;
261;SDS011;114;48.260;10.988;2023-05-14T08:45:10;21.97;;;16.20;;
261;SDS011;114;48.260;10.988;2023-05-14T08:47:42;20.40;;;15.97;;
261;SDS011;114;48.260;10.988;2023-05-14T08:50:14;19.73;;;15.27;;
261;SDS011;114;48.260;10.988;2023-05-14T08:52:41;14.30;;;12.80;;
261;SDS011;114;48.260;10.988;2023-05-14T08:55:07;17.50;;;14.23;;
261;SDS011;114;48.260;10.988;2023-05-14T08:57:33;18.20;;;14.07;;
261;SDS011;114;48.260;10.988;2023-05-14T09:00:00;15.03;;;13.53;;
261;SDS011;114;48.260;10.988;2023-05-14T09:02:32;14.90;;;12.20;;
261;SDS011;114;48.260;10.988;2023-05-14T09:05:02;12.73;;;11.43;;
261;SDS011;114;48.260;10.988;2023-05-14T09:07:28;13.13;;;11.13;;
261;SDS011;114;48.260;10.988;2023-05-14T09:09:54;12.57;;;11.40;;
261;SDS011;114;48.260;10.988;2023-05-14T09:12:20;13.07;;;11.87;;
261;SDS011;114;48.260;10.988;2023-05-14T09:14:47;9.90;;;8.83;;
261;SDS011;114;48.260;10.988;2023-05-14T09:17:14;10.50;;;9.50;;
261;SDS011;114;48.260;10.988;2023-05-14T09:19:42;13.57;;;10.97;;
261;SDS011;114;48.260;10.988;2023-05-14T09:22:11;9.90;;;9.00;;
261;SDS011;114;48.260;10.988;2023-05-14T09:24:38;9.37;;;8.47;;
261;SDS011;114;48.260;10.988;2023-05-14T09:27:04;12.00;;;10.23;;
261;SDS011;114;48.260;10.988;2023-05-14T09:29:31;12.00;;;10.90;;
261;SDS011;114;48.260;10.988;2023-05-14T09:31:57;11.83;;;10.63;;
261;SDS011;114;48.260;10.988;2023-05-14T09:34:27;11.03;;;10.03;;
261;SDS011;114;48.260;10.988;2023-05-14T09:37:04;16.07;;;11.73;;
261;SDS011;114;48.260;10.988;2023-05-14T09:39:32;12.33;;;10.40;;
261;SDS011;114;48.260;10.988;2023-05-14T09:42:00;10.93;;;9.80;;
261;SDS011;114;48.260;10.988;2023-05-14T09:44:26;10.20;;;9.20;;
261;SDS011;114;48.260;10.988;2023-05-14T09:46:51;11.40;;;10.33;;
261;SDS011;114;48.260;10.988;2023-05-14T09:49:17;8.93;;;8.20;;
261;SDS011;114;48.260;10.988;2023-05-14T09:51:43;8.57;;;7.60;;
261;SDS011;114;48.260;10.988;2023-05-14T09:54:09;9.40;;;8.60;;
261;SDS011;114;48.260;10.988;2023-05-14T09:56:35;8.90;;;8.20;;
261;SDS011;114;48.260;10.988;2023-05-14T09:59:02;8.80;;;8.00;;
261;SDS011;114;48.260;10.988;2023-05-14T10:01:29;9.10;;;8.20;;
261;SDS011;114;48.260;10.988;2023-05-14T10:03:55;10.27;;;8.13;;
261;SDS011;114;48.260;10.988;2023-05-14T10:06:22;8.20;;;7.40;;
261;SDS011;114;48.260;10.988;2023-05-14T10:08:51;9.60;;;8.60;;
261;SDS011;114;48.260;10.988;2023-05-14T10:11:21;8.57;;;7.77;;
261;SDS011;114;48.260;10.988;2023-05-14T10:16:49;9.63;;;8.83;;
261;SDS011;114;48.260;10.988;2023-05-14T10:19:15;9.83;;;8.93;;
261;SDS011;114;48.260;10.988;2023-05-14T10:21:47;9.40;;;8.60;;
261;SDS011;114;48.260;10.988;2023-05-14T10:24:17;10.50;;;9.60;;
261;SDS011;114;48.260;10.988;2023-05-14T10:26:44;9.20;;;8.40;;
261;SDS011;114;48.260;10.988;2023-05-14T10:29:10;8.33;;;7.70;;
261;SDS011;114;48.260;10.988;2023-05-14T10:31:54;8.00;;;7.30;;
261;SDS011;114;48.260;10.988;2023-05-14T10:34:39;7.93;;;7.13;;
261;SDS011;114;48.260;10.988;2023-05-14T10:37:21;9.43;;;8.00;;
261;SDS011;114;48.260;10.988;2023-05-14T10:39:49;8.33;;;7.63;;
261;SDS011;114;48.260;10.988;2023-05-14T10:42:18;7.77;;;7.07;;
261;SDS011;114;48.260;10.988;2023-05-14T10:44:55;9.27;;;8.37;;
261;SDS011;114;48.260;10.988;2023-05-14T10:47:26;9.33;;;8.53;;
261;SDS011;114;48.260;10.988;2023-05-14T10:49:54;8.67;;;7.90;;
261;SDS011;114;48.260;10.988;2023-05-14T10:52:20;8.33;;;7.53;;
261;SDS011;114;48.260;10.988;2023-05-14T10:54:49;8.00;;;7.30;;
261;SDS011;114;48.260;10.988;2023-05-14T10:57:27;7.87;;;7.20;;
261;SDS011;114;48.260;10.988;2023-05-14T10:59:56;8.13;;;7.20;;
261;SDS011;114;48.260;10.988;2023-05-14T11:07:38;27.40;;;16.73;;
261;SDS011;114;48.260;10.988;2023-05-14T11:10:15;10.27;;;9.27;;
261;SDS011;114;48.260;10.988;2023-05-14T11:12:43;21.03;;;16.53;;
261;SDS011;114;48.260;10.988;2023-05-14T11:15:12;18.47;;;13.30;;
261;SDS011;114;48.260;10.988;2023-05-14T11:17:40;19.50;;;14.20;;
261;SDS011;114;48.260;10.988;2023-05-14T11:20:07;12.23;;;7.70;;
261;SDS011;114;48.260;10.988;2023-05-14T11:22:34;7.53;;;6.93;;
261;SDS011;114;48.260;10.988;2023-05-14T11:25:00;11.50;;;10.40;;
261;SDS011;114;48.260;10.988;2023-05-14T11:27:26;7.20;;;6.60;;
261;SDS011;114;48.260;10.988;2023-05-14T11:29:52;6.63;;;6.13;;
261;SDS011;114;48.260;10.988;2023-05-14T11:32:19;6.23;;;5.77;;
261;SDS011;114;48.260;10.988;2023-05-14T11:34:45;5.90;;;5.40;;
261;SDS011;114;48.260;10.988;2023-05-14T11:37:12;6.60;;;6.10;;
261;SDS011;114;48.260;10.988;2023-05-14T11:39:48;6.80;;;6.20;;
261;SDS011;114;48.260;10.988;2023-05-14T11:42:16;7.10;;;6.60;;
261;SDS011;114;48.260;10.988;2023-05-14T11:44:44;6.80;;;6.20;;
261;SDS011;114;48.260;10.988;2023-05-14T11:47:13;5.13;;;4.83;;
261;SDS011;114;48.260;10.988;2023-05-14T11:49:40;5.90;;;5.50;;
261;SDS011;114;48.260;10.988;2023-05-14T11:52:07;6.70;;;6.10;;
261;SDS011;114;48.260;10.988;2023-05-14T11:54:38;9.07;;;6.67;;
261;SDS011;114;48.260;10.988;2023-05-14T11:57:38;5.80;;;5.20;;
261;SDS011;114;48.260;10.988;2023-05-14T11:59:56;5.40;;;4.90;;
261;SDS011;114;48.260;10.988;2023-05-14T12:02:22;5.30;;;4.77;;
261;SDS011;114;48.260;10.988;2023-05-14T12:04:54;4.47;;;4.17;;
261;SDS011;114;48.260;10.988;2023-05-14T12:07:20;5.20;;;4.70;;
261;SDS011;114;48.260;10.988;2023-05-14T12:09:46;5.60;;;5.10;;
261;SDS011;114;48.260;10.988;2023-05-14T12:12:19;4.93;;;4.40;;
261;SDS011;114;48.260;10.988;2023-05-14T12:14:46;4.30;;;4.10;;
261;SDS011;114;48.260;10.988;2023-05-14T12:17:13;4.73;;;4.43;;
261;SDS011;114;48.260;10.988;2023-05-14T12:19:41;5.10;;;4.80;;
261;SDS011;114;48.260;10.988;2023-05-14T12:22:08;4.20;;;3.80;;
261;SDS011;114;48.260;10.988;2023-05-14T12:24:38;4.17;;;3.97;;
261;SDS011;114;48.260;10.988;2023-05-14T12:27:06;5.07;;;4.23;;
261;SDS011;114;48.260;10.988;2023-05-14T12:29:36;4.97;;;4.57;;
261;SDS011;114;48.260;10.988;2023-05-14T12:32:06;4.00;;;3.80;;
261;SDS011;114;48.260;10.988;2023-05-14T12:34:33;4.63;;;4.30;;
261;SDS011;114;48.260;10.988;2023-05-14T12:37:00;4.90;;;4.60;;
261;SDS011;114;48.260;10.988;2023-05-14T12:39:26;4.90;;;4.60;;
261;SDS011;114;48.260;10.988;2023-05-14T12:41:52;4.63;;;4.43;;
261;SDS011;114;48.260;10.988;2023-05-14T12:44:17;5.10;;;4.70;;
261;SDS011;114;48.260;10.988;2023-05-14T12:46:43;4.50;;;4.30;;
261;SDS011;114;48.260;10.988;2023-05-14T12:49:09;6.00;;;4.43;;
261;SDS011;114;48.260;10.988;2023-05-14T12:51:35;5.07;;;4.77;;
261;SDS011;114;48.260;10.988;2023-05-14T12:54:01;4.77;;;4.47;;
261;SDS011;114;48.260;10.988;2023-05-14T12:56:27;4.73;;;4.43;;
261;SDS011;114;48.260;10.988;2023-05-14T12:58:54;5.20;;;4.70;;
261;SDS011;114;48.260;10.988;2023-05-14T13:01:20;4.80;;;4.40;;
261;SDS011;114;48.260;10.988;2023-05-14T13:03:46;3.90;;;3.70;;
261;SDS011;114;48.260;10.988;2023-05-14T13:06:12;4.33;;;3.90;;
261;SDS011;114;48.260;10.988;2023-05-14T13:08:37;4.50;;;4.20;;
261;SDS011;114;48.260;10.988;2023-05-14T13:11:03;4.83;;;4.50;;
261;SDS011;114;48.260;10.988;2023-05-14T13:13:29;4.40;;;4.10;;
261;SDS011;114;48.260;10.988;2023-05-14T13:15:54;5.63;;;4.20;;
261;SDS011;114;48.260;10.988;2023-05-14T13:18:20;4.43;;;4.23;;
261;SDS011;114;48.260;10.988;2023-05-14T13:20:46;3.87;;;3.67;;
261;SDS011;114;48.260;10.988;2023-05-14T13:23:12;4.80;;;4.40;;
261;SDS011;114;48.260;10.988;2023-05-14T13:25:38;3.97;;;3.50;;
261;SDS011;114;48.260;10.988;2023-05-14T13:28:04;4.03;;;3.80;;
261;SDS011;114;48.260;10.988;2023-05-14T13:30:30;3.13;;;2.93;;
261;SDS011;114;48.260;10.988;2023-05-14T13:32:56;5.13;;;3.40;;
261;SDS011;114;48.260;10.988;2023-05-14T13:35:23;4.00;;;3.27;;
261;SDS011;114;48.260;10.988;2023-05-14T13:37:49;2.90;;;2.70;;
261;SDS011;114;48.260;10.988;2023-05-14T13:40:15;2.70;;;2.53;;
261;SDS011;114;48.260;10.988;2023-05-14T13:42:41;1.90;;;1.80;;
261;SDS011;114;48.260;10.988;2023-05-14T13:45:07;3.90;;;2.33;;
261;SDS011;114;48.260;10.988;2023-05-14T13:47:33;2.80;;;2.47;;
261;SDS011;114;48.260;10.988;2023-05-14T13:49:59;2.40;;;2.30;;
261;SDS011;114;48.260;10.988;2023-05-14T13:52:25;2.30;;;2.20;;
261;SDS011;114;48.260;10.988;2023-05-14T13:54:51;1.80;;;1.70;;
261;SDS011;114;48.260;10.988;2023-05-14T13:57:17;2.30;;;2.20;;
261;SDS011;114;48.260;10.988;2023-05-14T13:59:44;2.90;;;2.73;;
261;SDS011;114;48.260;10.988;2023-05-14T14:02:10;2.53;;;2.40;;
261;SDS011;114;48.260;10.988;2023-05-14T14:04:36;2.00;;;1.80;;
261;SDS011;114;48.260;10.988;2023-05-14T14:07:02;2.30;;;2.20;;
261;SDS011;114;48.260;10.988;2023-05-14T14:09:28;2.10;;;2.00;;
261;SDS011;114;48.260;10.988;2023-05-14T14:12:02;1.73;;;1.63;;
261;SDS011;114;48.260;10.988;2023-05-14T14:14:29;1.90;;;1.80;;
261;SDS011;114;48.260;10.988;2023-05-14T14:16:54;2.10;;;1.95;;
261;SDS011;114;48.260;10.988;2023-05-14T14:19:20;1.85;;;1.75;;
261;SDS011;114;48.260;10.988;2023-05-14T14:21:46;1.50;;;1.40;;
261;SDS011;114;48.260;10.988;2023-05-14T14:24:12;8.77;;;1.37;;
261;SDS011;114;48.260;10.988;2023-05-14T14:26:37;1.50;;;1.40;;
261;SDS011;114;48.260;10.988;2023-05-14T14:29:03;1.70;;;1.60;;
261;SDS011;114;48.260;10.988;2023-05-14T14:31:29;3.57;;;1.70;;
261;SDS011;114;48.260;10.988;2023-05-14T14:33:54;1.90;;;1.80;;
261;SDS011;114;48.260;10.988;2023-05-14T14:36:20;1.03;;;1.00;;
261;SDS011;114;48.260;10.988;2023-05-14T14:38:46;1.40;;;1.40;;
261;SDS011;114;48.260;10.988;2023-05-14T14:41:11;0.90;;;0.90;;
261;SDS011;114;48.260;10.988;2023-05-14T14:43:39;1.57;;;1.47;;
261;SDS011;114;48.260;10.988;2023-05-14T14:46:05;1.60;;;1.50;;
261;SDS011;114;48.260;10.988;2023-05-14T14:48:33;1.80;;;1.27;;
261;SDS011;114;48.260;10.988;2023-05-14T14:51:03;1.37;;;1.27;;
261;SDS011;114;48.260;10.988;2023-05-14T14:53:30;1.47;;;1.37;;
261;SDS011;114;48.260;10.988;2023-05-14T14:55:56;1.03;;;1.00;;
261;SDS011;114;48.260;10.988;2023-05-14T14:58:22;1.50;;;1.50;;
261;SDS011;114;48.260;10.988;2023-05-14T15:00:49;1.30;;;1.30;;
261;SDS011;114;48.260;10.988;2023-05-14T15:03:16;1.67;;;1.57;;
261;SDS011;114;48.260;10.988;2023-05-14T15:05:42;1.67;;;1.57;;
261;SDS011;114;48.260;10.988;2023-05-14T15:08:09;1.67;;;1.57;;
261;SDS011;114;48.260;10.988;2023-05-14T15:10:35;1.80;;;1.70;;
261;SDS011;114;48.260;10.988;2023-05-14T15:13:02;2.70;;;1.87;;
261;SDS011;114;48.260;10.988;2023-05-14T15:15:29;3.30;;;1.40;;
261;SDS011;114;48.260;10.988;2023-05-14T15:17:55;1.00;;;1.00;;
261;SDS011;114;48.260;10.988;2023-05-14T15:20:21;1.37;;;1.37;;
261;SDS011;114;48.260;10.988;2023-05-14T15:22:47;1.87;;;1.77;;
261;SDS011;114;48.260;10.988;2023-05-14T15:25:16;1.83;;;1.73;;
261;SDS011;114;48.260;10.988;2023-05-14T15:27:42;4.00;;;1.77;;